Almeida Garret — CSKB — position and weather

sailwx.info

Track history (hours):
 
Tides and Currents Weather Stations Pressure Air Temp Water Temp Dewpoint Dewpoint Depression Visibility Wind Speed Wind Dir Waves Ship Positions

Almeida Garret

Last reported at 2018-Feb-20 20:00 UTC. Time now 2018-Feb-21 05:11 UTC.
Position N 38°39' W 009°05'.

Length 49 m.

Type: Ship (hazmat cat A). MMSI: 263701340.

Date/timePositionNaut miles runAvg speedWind from/ knotsBaromVisibWave heightAir tempDewpointWater temp
2018-Feb-20 20:00N 38°39' W 009°05'4 8.2
2018-Feb-20 19:30N 38°42' W 009°08'4 8.3
2018-Feb-20 19:00N 38°39' W 009°05'4 8.1
2018-Feb-20 18:31N 38°42' W 009°08'2 4.6
2018-Feb-20 18:00N 38°40' W 009°07'1 2.2
2018-Feb-20 17:30N 38°39' W 009°06'3 6.7
2018-Feb-20 17:00N 38°42' W 009°08'4 8.3
2018-Feb-20 16:30N 38°39' W 009°05'3 6.5
2018-Feb-20 16:00N 38°41' W 009°08'3 5.2
2018-Feb-20 15:30N 38°39' W 009°06'1 0.2
2018-Feb-20 11:30N 38°39' W 009°05'3 6.9
2018-Feb-20 11:00N 38°42' W 009°08'3 6.0
2018-Feb-20 10:30N 38°39' W 009°06'3 5.4
2018-Feb-20 10:01N 38°41' W 009°08'2 4.8
2018-Feb-20 09:30N 38°39' W 009°06'1 1.6
2018-Feb-20 09:01N 38°40' W 009°07'0 0.4
2018-Feb-20 08:31N 38°40' W 009°06'3 5.7
2018-Feb-20 08:00N 38°42' W 009°08'4 8.4
2018-Feb-20 07:30N 38°39' W 009°05'4 8.4
2018-Feb-20 07:01N 38°42' W 009°08'4 8.3
2018-Feb-20 06:30N 38°39' W 009°05'4 7.3
2018-Feb-20 06:00N 38°42' W 009°08'4 7.4
2018-Feb-20 05:30N 38°39' W 009°05'0 0.0
2018-Feb-19 23:53N 38°39' W 009°05'410.8
2018-Feb-19 23:30N 38°42' W 009°08'4 8.4
2018-Feb-19 23:00N 38°39' W 009°05'3 6.8
2018-Feb-19 22:31N 38°41' W 009°08'3 6.8
2018-Feb-19 22:00N 38°39' W 009°05'4 7.0
2018-Feb-19 21:30N 38°42' W 009°08'4 7.1
2018-Feb-19 21:00N 38°39' W 009°05'0 0.0
2018-Feb-19 20:30N 38°39' W 009°05'4 8.2
2018-Feb-19 20:00N 38°42' W 009°08'4 8.5
2018-Feb-19 19:30N 38°39' W 009°05'4 8.4
2018-Feb-19 19:01N 38°42' W 009°08'4 8.3
2018-Feb-19 18:30N 38°39' W 009°05'4 7.6
2018-Feb-19 18:00N 38°42' W 009°08'2 4.3
2018-Feb-19 17:30N 38°40' W 009°07'1 1.3
2018-Feb-19 17:00N 38°40' W 009°08'2 4.7
2018-Feb-19 16:29N 38°39' W 009°05'0 0.0
2018-Feb-19 09:44N 38°39' W 009°05'0 0.4
2018-Feb-19 09:30N 38°39' W 009°05'3 6.1
2018-Feb-19 09:01N 38°41' W 009°08'3 6.2
2018-Feb-19 08:30N 38°39' W 009°05'4 8.3
2018-Feb-19 08:00N 38°42' W 009°08'4 8.4
2018-Feb-19 07:30N 38°39' W 009°05'4 7.7
2018-Feb-19 07:01N 38°42' W 009°08'4 0.1
2018-Feb-17 22:19N 38°39' W 009°05'0 0.0
2018-Feb-17 22:00N 38°39' W 009°05'4 7.3
2018-Feb-17 21:30N 38°42' W 009°08'3 6.4
2018-Feb-17 21:00N 38°39' W 009°06'1 1.1
2018-Feb-17 20:30N 38°39' W 009°05'3 6.5
2018-Feb-17 20:00N 38°41' W 009°08'2 4.1
2018-Feb-17 19:31N 38°40' W 009°06'2 4.2
2018-Feb-17 19:00N 38°41' W 009°08'2 4.9
2018-Feb-17 18:30N 38°39' W 009°06'3 5.2
2018-Feb-17 18:00N 38°42' W 009°08'3 5.5
2018-Feb-17 17:31N 38°39' W 009°06'3 5.8
2018-Feb-17 17:00N 38°42' W 009°08'3 5.8
2018-Feb-17 16:30N 38°39' W 009°06'3 5.9
2018-Feb-17 16:01N 38°42' W 009°08'3 6.3
2018-Feb-17 15:30N 38°39' W 009°05'3 5.5
2018-Feb-17 15:00N 38°41' W 009°08'3 5.0
2018-Feb-17 14:30N 38°39' W 009°06'3 6.1
2018-Feb-17 14:00N 38°41' W 009°08'3 6.6
2018-Feb-17 13:30N 38°39' W 009°05'0 0.9
2018-Feb-17 13:01N 38°39' W 009°05'0 0.0
2018-Feb-17 12:31N 38°39' W 009°05'0 0.0
2018-Feb-17 12:01N 38°39' W 009°05'0 0.0
2018-Feb-17 11:30N 38°39' W 009°05'0 0.0
2018-Feb-17 11:00N 38°39' W 009°05'3 6.8
2018-Feb-17 10:30N 38°42' W 009°08'3 5.1
2018-Feb-17 10:00N 38°39' W 009°06'2 4.8
2018-Feb-17 09:30N 38°41' W 009°08'3 5.3
2018-Feb-17 09:00N 38°39' W 009°06'3 6.1
2018-Feb-17 08:30N 38°42' W 009°08'3 5.7
2018-Feb-17 08:00N 38°39' W 009°06'1 1.8
2018-Feb-17 07:30N 38°39' W 009°05'3 5.5
2018-Feb-17 07:01N 38°41' W 009°08'1 2.9
2018-Feb-17 06:30N 38°40' W 009°06'2 3.2
2018-Feb-17 06:01N 38°41' W 009°08'3 5.5
2018-Feb-17 05:29N 38°39' W 009°05'0 0.0
2018-Feb-16 23:52N 38°39' W 009°05'411.7
2018-Feb-16 23:30N 38°42' W 009°08'4 8.3
2018-Feb-16 23:00N 38°39' W 009°05'3 6.4
2018-Feb-16 22:31N 38°41' W 009°08'3 6.4
2018-Feb-16 22:00N 38°39' W 009°05'3 6.7
2018-Feb-16 21:30N 38°42' W 009°08'3 6.7
2018-Feb-16 21:00N 38°39' W 009°05'0 0.0
2018-Feb-16 20:30N 38°39' W 009°05'4 8.3
2018-Feb-16 20:01N 38°42' W 009°08'4 8.3
2018-Feb-16 19:30N 38°39' W 009°05'4 8.4
2018-Feb-16 19:00N 38°42' W 009°08'4 8.4
2018-Feb-16 18:31N 38°39' W 009°05'4 7.6
2018-Feb-16 18:00N 38°42' W 009°08'2 3.4
2018-Feb-16 17:31N 38°40' W 009°08'0 0.3
2018-Feb-16 17:01N 38°40' W 009°07'2 4.4
2018-Feb-16 16:30N 38°39' W 009°05'0 0.0
2018-Feb-16 12:36N 38°39' W 009°05'0 0.0
2018-Feb-16 12:30N 38°39' W 009°05'0 0.0
2018-Feb-16 11:58N 38°39' W 009°05'0 0.0
2018-Feb-16 11:30N 38°39' W 009°05'0 0.0
2018-Feb-16 11:00N 38°39' W 009°05'0 0.0
2018-Feb-16 10:30N 38°39' W 009°05'0 0.0
2018-Feb-16 09:49N 38°39' W 009°05'0 1.2
2018-Feb-16 09:30N 38°39' W 009°05'3 5.2
2018-Feb-16 09:01N 38°41' W 009°08'1 2.1
2018-Feb-16 08:31N 38°40' W 009°07'1 1.9
2018-Feb-16 08:00N 38°41' W 009°08'2 3.6
2018-Feb-16 07:30N 38°40' W 009°06'1 2.9
2018-Feb-16 07:00N 38°40' W 009°08'3 5.0
2018-Feb-16 06:30N 38°39' W 009°05'0 0.0
2018-Feb-15 19:59N 38°39' W 009°05'4 9.2
2018-Feb-15 19:30N 38°42' W 009°09'4 8.2
2018-Feb-15 19:01N 38°39' W 009°06'4 7.8
2018-Feb-15 18:30N 38°42' W 009°09'1 1.8
2018-Feb-15 18:00N 38°41' W 009°08'3 6.1
2018-Feb-15 17:30N 38°39' W 009°06'4 8.1
2018-Feb-15 17:00N 38°42' W 009°09'4 7.4
2018-Feb-15 16:31N 38°39' W 009°06'3 5.7
2018-Feb-15 16:01N 38°42' W 009°08'3 5.6
2018-Feb-15 15:31N 38°39' W 009°06'1 1.4
2018-Feb-15 15:00N 38°39' W 009°05'0 0.0
2018-Feb-15 14:30N 38°39' W 009°05'0 0.0
2018-Feb-15 13:55N 38°39' W 009°05'0 0.0
2018-Feb-15 13:30N 38°39' W 009°05'0 0.0
2018-Feb-15 13:00N 38°39' W 009°05'0 0.0
2018-Feb-15 12:29N 38°39' W 009°05'0 0.0
2018-Feb-15 12:00N 38°39' W 009°05'0 0.0
2018-Feb-15 11:29N 38°39' W 009°05'3 7.0
2018-Feb-15 11:00N 38°41' W 009°08'3 5.5
2018-Feb-15 10:30N 38°39' W 009°06'1 1.5
2018-Feb-15 10:01N 38°39' W 009°05'4 8.3
2018-Feb-15 09:31N 38°42' W 009°08'3 5.3
2018-Feb-15 09:00N 38°40' W 009°07'1 2.0
2018-Feb-15 08:30N 38°39' W 009°06'3 6.4
2018-Feb-15 07:57N 38°42' W 009°08'4 9.3
2018-Feb-15 07:30N 38°39' W 009°05'4 8.3
2018-Feb-15 07:00N 38°42' W 009°08'4 8.3
2018-Feb-15 06:30N 38°39' W 009°05'4 8.2
2018-Feb-15 06:01N 38°42' W 009°08'4 8.2
2018-Feb-15 05:30N 38°39' W 009°05'0 0.0
2018-Feb-14 23:57N 38°39' W 009°05'4 9.4
2018-Feb-14 23:30N 38°42' W 009°08'4 8.3
2018-Feb-14 23:00N 38°39' W 009°05'3 7.0
2018-Feb-14 22:30N 38°42' W 009°08'3 6.8
2018-Feb-14 22:00N 38°39' W 009°05'4 7.2
2018-Feb-14 21:30N 38°42' W 009°08'4 7.2
2018-Feb-14 21:00N 38°39' W 009°05'0 0.0
2018-Feb-14 20:30N 38°39' W 009°05'4 8.3
2018-Feb-14 20:01N 38°42' W 009°08'4 8.1
2018-Feb-14 19:29N 38°39' W 009°05'4 8.7
2018-Feb-14 19:00N 38°42' W 009°08'4 8.3
2018-Feb-14 18:30N 38°39' W 009°05'4 7.8
2018-Feb-14 18:00N 38°42' W 009°08'2 3.8
2018-Feb-14 17:31N 38°40' W 009°08'0 0.6
2018-Feb-14 17:00N 38°41' W 009°08'3 5.0
2018-Feb-14 16:31N 38°39' W 009°05'0 0.0
2018-Feb-14 11:26N 38°39' W 009°05'0 0.0
2018-Feb-14 11:00N 38°39' W 009°05'0 0.0
2018-Feb-14 10:29N 38°39' W 009°05'4 7.5
2018-Feb-14 10:01N 38°42' W 009°08'3 6.0
2018-Feb-14 09:30N 38°39' W 009°06'3 5.4
2018-Feb-14 09:01N 38°41' W 009°08'3 6.7
2018-Feb-14 08:30N 38°39' W 009°05'4 8.4
2018-Feb-14 08:00N 38°42' W 009°08'4 8.3
2018-Feb-14 07:30N 38°39' W 009°05'3 6.4
2018-Feb-14 07:01N 38°41' W 009°08'3 6.0
2018-Feb-14 06:29N 38°39' W 009°05'0 0.0
2018-Feb-13 20:03N 38°39' W 009°05'0 0.1
2018-Feb-13 20:00N 38°39' W 009°05'4 8.3
2018-Feb-13 19:30N 38°42' W 009°08'4 7.7
2018-Feb-13 18:59N 38°39' W 009°05'4 8.5
2018-Feb-13 18:31N 38°42' W 009°08'4 7.2
2018-Feb-13 17:59N 38°39' W 009°05'4 7.9
2018-Feb-13 17:31N 38°42' W 009°08'4 8.3
2018-Feb-13 17:00N 38°39' W 009°05'0 0.0
2018-Feb-13 16:30N 38°39' W 009°05'0 0.0
2018-Feb-13 16:00N 38°39' W 009°05'0 0.0
2018-Feb-13 15:30N 38°39' W 009°05'0 0.0
2018-Feb-13 15:00N 38°39' W 009°05'3 6.8
2018-Feb-13 14:30N 38°42' W 009°08'3 5.3
2018-Feb-13 14:00N 38°39' W 009°06'3 5.3
2018-Feb-13 13:30N 38°42' W 009°08'3 5.1
2018-Feb-13 13:00N 38°39' W 009°06'3 6.4
2018-Feb-13 12:30N 38°42' W 009°08'3 6.8
2018-Feb-13 12:00N 38°39' W 009°06'3 6.1
2018-Feb-13 11:30N 38°42' W 009°08'3 5.4
2018-Feb-13 11:01N 38°39' W 009°06'1 1.9
2018-Feb-13 10:31N 38°39' W 009°05'0 1.0
2018-Feb-13 10:01N 38°39' W 009°05'4 7.6
2018-Feb-13 09:30N 38°42' W 009°08'4 7.9
2018-Feb-13 09:01N 38°39' W 009°05'4 7.9
2018-Feb-13 08:30N 38°42' W 009°08'4 8.3
2018-Feb-13 08:00N 38°39' W 009°05'4 7.9
2018-Feb-13 07:30N 38°42' W 009°08'4 7.4
2018-Feb-13 06:58N 38°39' W 009°05'0 0.0
2018-Feb-13 06:30N 38°39' W 009°05'0 0.0
2018-Feb-12 21:09N 38°39' W 009°05'0 0.6
2018-Feb-12 21:00N 38°39' W 009°05'0 0.0
2018-Feb-12 20:29N 38°39' W 009°05'0 0.0
2018-Feb-12 20:00N 38°39' W 009°05'4 8.8
2018-Feb-12 19:30N 38°42' W 009°09'4 8.3
2018-Feb-12 19:00N 38°39' W 009°06'4 8.0
2018-Feb-12 18:30N 38°42' W 009°09'1 1.7
2018-Feb-12 18:00N 38°41' W 009°08'3 5.7
2018-Feb-12 17:28N 38°39' W 009°06'4 8.9
2018-Feb-12 17:00N 38°42' W 009°09'4 7.6
2018-Feb-12 16:30N 38°39' W 009°06'3 5.9
2018-Feb-12 16:00N 38°42' W 009°08'3 6.1
2018-Feb-12 15:30N 38°39' W 009°05'0 0.9
2018-Feb-12 15:00N 38°39' W 009°05'0 0.0
2018-Feb-12 11:33N 38°39' W 009°05'0 0.5
2018-Feb-12 11:30N 38°39' W 009°05'3 6.5
2018-Feb-12 11:00N 38°41' W 009°08'2 4.9
2018-Feb-12 10:30N 38°39' W 009°06'3 5.2
2018-Feb-12 10:00N 38°41' W 009°08'3 5.4
2018-Feb-12 09:30N 38°39' W 009°06'1 2.1
2018-Feb-12 09:01N 38°40' W 009°07'1 1.8
2018-Feb-12 08:30N 38°39' W 009°06'3 7.0
2018-Feb-12 08:00N 38°42' W 009°08'4 8.3
2018-Feb-12 07:30N 38°39' W 009°05'4 8.2
2018-Feb-12 07:00N 38°42' W 009°08'4 8.4
2018-Feb-12 06:30N 38°39' W 009°05'4 7.1
2018-Feb-12 06:00N 38°42' W 009°08'4 7.0
2018-Feb-12 05:30N 38°39' W 009°05'  
Track history (hours):
 
Tides and Currents Weather Stations Pressure Air Temp Water Temp Dewpoint Dewpoint Depression Visibility Wind Speed Wind Dir Waves Ship Positions

Almeida Garret

Last reported at 2018-Feb-20 20:00 UTC. Time now 2018-Feb-21 05:11 UTC.
Position N 38°39' W 009°05'.

Length 49 m.

Type: Ship (hazmat cat A). MMSI: 263701340.

Date/timePositionNaut miles runAvg speedWind from/ knotsBaromVisibWave heightAir tempDewpointWater temp
2018-Feb-20 20:00N 38°39' W 009°05'4 8.2
2018-Feb-20 19:30N 38°42' W 009°08'4 8.3
2018-Feb-20 19:00N 38°39' W 009°05'4 8.1
2018-Feb-20 18:31N 38°42' W 009°08'2 4.6
2018-Feb-20 18:00N 38°40' W 009°07'1 2.2
2018-Feb-20 17:30N 38°39' W 009°06'3 6.7
2018-Feb-20 17:00N 38°42' W 009°08'4 8.3
2018-Feb-20 16:30N 38°39' W 009°05'3 6.5
2018-Feb-20 16:00N 38°41' W 009°08'3 5.2
2018-Feb-20 15:30N 38°39' W 009°06'1 0.2
2018-Feb-20 11:30N 38°39' W 009°05'3 6.9
2018-Feb-20 11:00N 38°42' W 009°08'3 6.0
2018-Feb-20 10:30N 38°39' W 009°06'3 5.4
2018-Feb-20 10:01N 38°41' W 009°08'2 4.8
2018-Feb-20 09:30N 38°39' W 009°06'1 1.6
2018-Feb-20 09:01N 38°40' W 009°07'0 0.4
2018-Feb-20 08:31N 38°40' W 009°06'3 5.7
2018-Feb-20 08:00N 38°42' W 009°08'4 8.4
2018-Feb-20 07:30N 38°39' W 009°05'4 8.4
2018-Feb-20 07:01N 38°42' W 009°08'4 8.3
2018-Feb-20 06:30N 38°39' W 009°05'4 7.3
2018-Feb-20 06:00N 38°42' W 009°08'4 7.4
2018-Feb-20 05:30N 38°39' W 009°05'0 0.0
2018-Feb-19 23:53N 38°39' W 009°05'410.8
2018-Feb-19 23:30N 38°42' W 009°08'4 8.4
2018-Feb-19 23:00N 38°39' W 009°05'3 6.8
2018-Feb-19 22:31N 38°41' W 009°08'3 6.8
2018-Feb-19 22:00N 38°39' W 009°05'4 7.0
2018-Feb-19 21:30N 38°42' W 009°08'4 7.1
2018-Feb-19 21:00N 38°39' W 009°05'0 0.0
2018-Feb-19 20:30N 38°39' W 009°05'4 8.2
2018-Feb-19 20:00N 38°42' W 009°08'4 8.5
2018-Feb-19 19:30N 38°39' W 009°05'4 8.4
2018-Feb-19 19:01N 38°42' W 009°08'4 8.3
2018-Feb-19 18:30N 38°39' W 009°05'4 7.6
2018-Feb-19 18:00N 38°42' W 009°08'2 4.3
2018-Feb-19 17:30N 38°40' W 009°07'1 1.3
2018-Feb-19 17:00N 38°40' W 009°08'2 4.7
2018-Feb-19 16:29N 38°39' W 009°05'0 0.0
2018-Feb-19 09:44N 38°39' W 009°05'0 0.4
2018-Feb-19 09:30N 38°39' W 009°05'3 6.1
2018-Feb-19 09:01N 38°41' W 009°08'3 6.2
2018-Feb-19 08:30N 38°39' W 009°05'4 8.3
2018-Feb-19 08:00N 38°42' W 009°08'4 8.4
2018-Feb-19 07:30N 38°39' W 009°05'4 7.7
2018-Feb-19 07:01N 38°42' W 009°08'4 0.1
2018-Feb-17 22:19N 38°39' W 009°05'0 0.0
2018-Feb-17 22:00N 38°39' W 009°05'4 7.3
2018-Feb-17 21:30N 38°42' W 009°08'3 6.4
2018-Feb-17 21:00N 38°39' W 009°06'1 1.1
2018-Feb-17 20:30N 38°39' W 009°05'3 6.5
2018-Feb-17 20:00N 38°41' W 009°08'2 4.1
2018-Feb-17 19:31N 38°40' W 009°06'2 4.2
2018-Feb-17 19:00N 38°41' W 009°08'2 4.9
2018-Feb-17 18:30N 38°39' W 009°06'3 5.2
2018-Feb-17 18:00N 38°42' W 009°08'3 5.5
2018-Feb-17 17:31N 38°39' W 009°06'3 5.8
2018-Feb-17 17:00N 38°42' W 009°08'3 5.8
2018-Feb-17 16:30N 38°39' W 009°06'3 5.9
2018-Feb-17 16:01N 38°42' W 009°08'3 6.3
2018-Feb-17 15:30N 38°39' W 009°05'3 5.5
2018-Feb-17 15:00N 38°41' W 009°08'3 5.0
2018-Feb-17 14:30N 38°39' W 009°06'3 6.1
2018-Feb-17 14:00N 38°41' W 009°08'3 6.6
2018-Feb-17 13:30N 38°39' W 009°05'0 0.9
2018-Feb-17 13:01N 38°39' W 009°05'0 0.0
2018-Feb-17 12:31N 38°39' W 009°05'0 0.0
2018-Feb-17 12:01N 38°39' W 009°05'0 0.0
2018-Feb-17 11:30N 38°39' W 009°05'0 0.0
2018-Feb-17 11:00N 38°39' W 009°05'3 6.8
2018-Feb-17 10:30N 38°42' W 009°08'3 5.1
2018-Feb-17 10:00N 38°39' W 009°06'2 4.8
2018-Feb-17 09:30N 38°41' W 009°08'3 5.3
2018-Feb-17 09:00N 38°39' W 009°06'3 6.1
2018-Feb-17 08:30N 38°42' W 009°08'3 5.7
2018-Feb-17 08:00N 38°39' W 009°06'1 1.8
2018-Feb-17 07:30N 38°39' W 009°05'3 5.5
2018-Feb-17 07:01N 38°41' W 009°08'1 2.9
2018-Feb-17 06:30N 38°40' W 009°06'2 3.2
2018-Feb-17 06:01N 38°41' W 009°08'3 5.5
2018-Feb-17 05:29N 38°39' W 009°05'0 0.0
2018-Feb-16 23:52N 38°39' W 009°05'411.7
2018-Feb-16 23:30N 38°42' W 009°08'4 8.3
2018-Feb-16 23:00N 38°39' W 009°05'3 6.4
2018-Feb-16 22:31N 38°41' W 009°08'3 6.4
2018-Feb-16 22:00N 38°39' W 009°05'3 6.7
2018-Feb-16 21:30N 38°42' W 009°08'3 6.7
2018-Feb-16 21:00N 38°39' W 009°05'0 0.0
2018-Feb-16 20:30N 38°39' W 009°05'4 8.3
2018-Feb-16 20:01N 38°42' W 009°08'4 8.3
2018-Feb-16 19:30N 38°39' W 009°05'4 8.4
2018-Feb-16 19:00N 38°42' W 009°08'4 8.4
2018-Feb-16 18:31N 38°39' W 009°05'4 7.6
2018-Feb-16 18:00N 38°42' W 009°08'2 3.4
2018-Feb-16 17:31N 38°40' W 009°08'0 0.3
2018-Feb-16 17:01N 38°40' W 009°07'2 4.4
2018-Feb-16 16:30N 38°39' W 009°05'0 0.0
2018-Feb-16 12:36N 38°39' W 009°05'0 0.0
2018-Feb-16 12:30N 38°39' W 009°05'0 0.0
2018-Feb-16 11:58N 38°39' W 009°05'0 0.0
2018-Feb-16 11:30N 38°39' W 009°05'0 0.0
2018-Feb-16 11:00N 38°39' W 009°05'0 0.0
2018-Feb-16 10:30N 38°39' W 009°05'0 0.0
2018-Feb-16 09:49N 38°39' W 009°05'0 1.2
2018-Feb-16 09:30N 38°39' W 009°05'3 5.2
2018-Feb-16 09:01N 38°41' W 009°08'1 2.1
2018-Feb-16 08:31N 38°40' W 009°07'1 1.9
2018-Feb-16 08:00N 38°41' W 009°08'2 3.6
2018-Feb-16 07:30N 38°40' W 009°06'1 2.9
2018-Feb-16 07:00N 38°40' W 009°08'3 5.0
2018-Feb-16 06:30N 38°39' W 009°05'0 0.0
2018-Feb-15 19:59N 38°39' W 009°05'4 9.2
2018-Feb-15 19:30N 38°42' W 009°09'4 8.2
2018-Feb-15 19:01N 38°39' W 009°06'4 7.8
2018-Feb-15 18:30N 38°42' W 009°09'1 1.8
2018-Feb-15 18:00N 38°41' W 009°08'3 6.1
2018-Feb-15 17:30N 38°39' W 009°06'4 8.1
2018-Feb-15 17:00N 38°42' W 009°09'4 7.4
2018-Feb-15 16:31N 38°39' W 009°06'3 5.7
2018-Feb-15 16:01N 38°42' W 009°08'3 5.6
2018-Feb-15 15:31N 38°39' W 009°06'1 1.4
2018-Feb-15 15:00N 38°39' W 009°05'0 0.0
2018-Feb-15 14:30N 38°39' W 009°05'0 0.0
2018-Feb-15 13:55N 38°39' W 009°05'0 0.0
2018-Feb-15 13:30N 38°39' W 009°05'0 0.0
2018-Feb-15 13:00N 38°39' W 009°05'0 0.0
2018-Feb-15 12:29N 38°39' W 009°05'0 0.0
2018-Feb-15 12:00N 38°39' W 009°05'0 0.0
2018-Feb-15 11:29N 38°39' W 009°05'3 7.0
2018-Feb-15 11:00N 38°41' W 009°08'3 5.5
2018-Feb-15 10:30N 38°39' W 009°06'1 1.5
2018-Feb-15 10:01N 38°39' W 009°05'4 8.3
2018-Feb-15 09:31N 38°42' W 009°08'3 5.3
2018-Feb-15 09:00N 38°40' W 009°07'1 2.0
2018-Feb-15 08:30N 38°39' W 009°06'3 6.4
2018-Feb-15 07:57N 38°42' W 009°08'4 9.3
2018-Feb-15 07:30N 38°39' W 009°05'4 8.3
2018-Feb-15 07:00N 38°42' W 009°08'4 8.3
2018-Feb-15 06:30N 38°39' W 009°05'4 8.2
2018-Feb-15 06:01N 38°42' W 009°08'4 8.2
2018-Feb-15 05:30N 38°39' W 009°05'0 0.0
2018-Feb-14 23:57N 38°39' W 009°05'4 9.4
2018-Feb-14 23:30N 38°42' W 009°08'4 8.3
2018-Feb-14 23:00N 38°39' W 009°05'3 7.0
2018-Feb-14 22:30N 38°42' W 009°08'3 6.8
2018-Feb-14 22:00N 38°39' W 009°05'4 7.2
2018-Feb-14 21:30N 38°42' W 009°08'4 7.2
2018-Feb-14 21:00N 38°39' W 009°05'0 0.0
2018-Feb-14 20:30N 38°39' W 009°05'4 8.3
2018-Feb-14 20:01N 38°42' W 009°08'4 8.1
2018-Feb-14 19:29N 38°39' W 009°05'4 8.7
2018-Feb-14 19:00N 38°42' W 009°08'4 8.3
2018-Feb-14 18:30N 38°39' W 009°05'4 7.8
2018-Feb-14 18:00N 38°42' W 009°08'2 3.8
2018-Feb-14 17:31N 38°40' W 009°08'0 0.6
2018-Feb-14 17:00N 38°41' W 009°08'3 5.0
2018-Feb-14 16:31N 38°39' W 009°05'0 0.0
2018-Feb-14 11:26N 38°39' W 009°05'0 0.0
2018-Feb-14 11:00N 38°39' W 009°05'0 0.0
2018-Feb-14 10:29N 38°39' W 009°05'4 7.5
2018-Feb-14 10:01N 38°42' W 009°08'3 6.0
2018-Feb-14 09:30N 38°39' W 009°06'3 5.4
2018-Feb-14 09:01N 38°41' W 009°08'3 6.7
2018-Feb-14 08:30N 38°39' W 009°05'4 8.4
2018-Feb-14 08:00N 38°42' W 009°08'4 8.3
2018-Feb-14 07:30N 38°39' W 009°05'3 6.4
2018-Feb-14 07:01N 38°41' W 009°08'3 6.0
2018-Feb-14 06:29N 38°39' W 009°05'0 0.0
2018-Feb-13 20:03N 38°39' W 009°05'0 0.1
2018-Feb-13 20:00N 38°39' W 009°05'4 8.3
2018-Feb-13 19:30N 38°42' W 009°08'4 7.7
2018-Feb-13 18:59N 38°39' W 009°05'4 8.5
2018-Feb-13 18:31N 38°42' W 009°08'4 7.2
2018-Feb-13 17:59N 38°39' W 009°05'4 7.9
2018-Feb-13 17:31N 38°42' W 009°08'4 8.3
2018-Feb-13 17:00N 38°39' W 009°05'0 0.0
2018-Feb-13 16:30N 38°39' W 009°05'0 0.0
2018-Feb-13 16:00N 38°39' W 009°05'0 0.0
2018-Feb-13 15:30N 38°39' W 009°05'0 0.0
2018-Feb-13 15:00N 38°39' W 009°05'3 6.8
2018-Feb-13 14:30N 38°42' W 009°08'3 5.3
2018-Feb-13 14:00N 38°39' W 009°06'3 5.3
2018-Feb-13 13:30N 38°42' W 009°08'3 5.1
2018-Feb-13 13:00N 38°39' W 009°06'3 6.4
2018-Feb-13 12:30N 38°42' W 009°08'3 6.8
2018-Feb-13 12:00N 38°39' W 009°06'3 6.1
2018-Feb-13 11:30N 38°42' W 009°08'3 5.4
2018-Feb-13 11:01N 38°39' W 009°06'1 1.9
2018-Feb-13 10:31N 38°39' W 009°05'0 1.0
2018-Feb-13 10:01N 38°39' W 009°05'4 7.6
2018-Feb-13 09:30N 38°42' W 009°08'4 7.9
2018-Feb-13 09:01N 38°39' W 009°05'4 7.9
2018-Feb-13 08:30N 38°42' W 009°08'4 8.3
2018-Feb-13 08:00N 38°39' W 009°05'4 7.9
2018-Feb-13 07:30N 38°42' W 009°08'4 7.4
2018-Feb-13 06:58N 38°39' W 009°05'0 0.0
2018-Feb-13 06:30N 38°39' W 009°05'0 0.0
2018-Feb-12 21:09N 38°39' W 009°05'0 0.6
2018-Feb-12 21:00N 38°39' W 009°05'0 0.0
2018-Feb-12 20:29N 38°39' W 009°05'0 0.0
2018-Feb-12 20:00N 38°39' W 009°05'4 8.8
2018-Feb-12 19:30N 38°42' W 009°09'4 8.3
2018-Feb-12 19:00N 38°39' W 009°06'4 8.0
2018-Feb-12 18:30N 38°42' W 009°09'1 1.7
2018-Feb-12 18:00N 38°41' W 009°08'3 5.7
2018-Feb-12 17:28N 38°39' W 009°06'4 8.9
2018-Feb-12 17:00N 38°42' W 009°09'4 7.6
2018-Feb-12 16:30N 38°39' W 009°06'3 5.9
2018-Feb-12 16:00N 38°42' W 009°08'3 6.1
2018-Feb-12 15:30N 38°39' W 009°05'0 0.9
2018-Feb-12 15:00N 38°39' W 009°05'0 0.0
2018-Feb-12 11:33N 38°39' W 009°05'0 0.5
2018-Feb-12 11:30N 38°39' W 009°05'3 6.5
2018-Feb-12 11:00N 38°41' W 009°08'2 4.9
2018-Feb-12 10:30N 38°39' W 009°06'3 5.2
2018-Feb-12 10:00N 38°41' W 009°08'3 5.4
2018-Feb-12 09:30N 38°39' W 009°06'1 2.1
2018-Feb-12 09:01N 38°40' W 009°07'1 1.8
2018-Feb-12 08:30N 38°39' W 009°06'3 7.0
2018-Feb-12 08:00N 38°42' W 009°08'4 8.3
2018-Feb-12 07:30N 38°39' W 009°05'4 8.2
2018-Feb-12 07:00N 38°42' W 009°08'4 8.4
2018-Feb-12 06:30N 38°39' W 009°05'4 7.1
2018-Feb-12 06:00N 38°42' W 009°08'4 7.0
2018-Feb-12 05:30N 38°39' W 009°05'  

Dump ship's entire track history